Time;durP1;ratioP1;P1;durP2;ratioP2;P2;SDS_P1;SDS_P2;PMS_P1;PMS_P2;Temp;Humidity;BMP_temperature;BMP_pressure;BME280_temperature;BME280_humidity;BME280_pressure;Samples;Min_cycle;Max_cycle;Signal;HPM_P1;HPM_P2
2022/03/24 00:00:32;;;;;;;30.20;19.80;;;7.80;52.70;;;;;;5069251;28;20454;-69
2022/03/24 00:02:59;;;;;;;37.23;20.03;;;7.80;52.80;;;;;;5069048;28;20475;-69
2022/03/24 00:05:27;;;;;;;34.70;21.50;;;7.80;53.00;;;;;;5068917;28;20456;-70
2022/03/24 00:07:55;;;;;;;31.07;19.73;;;7.70;53.20;;;;;;5069071;28;20496;-69
2022/03/24 00:10:24;;;;;;;26.50;18.97;;;7.90;53.40;;;;;;5069085;28;20457;-69
2022/03/24 00:12:52;;;;;;;31.10;21.63;;;8.00;52.80;;;;;;5069086;28;20511;-69
2022/03/24 00:15:20;;;;;;;33.47;20.20;;;7.90;53.10;;;;;;5069261;28;20437;-69
2022/03/24 00:17:47;;;;;;;35.80;20.57;;;7.80;53.40;;;;;;5068486;28;20501;-69
2022/03/24 00:20:14;;;;;;;38.40;19.77;;;7.80;53.30;;;;;;5068567;28;20455;-69
2022/03/24 00:22:41;;;;;;;42.30;20.50;;;7.90;53.20;;;;;;5068706;28;20980;-69
2022/03/24 00:25:10;;;;;;;30.13;19.90;;;8.00;53.20;;;;;;5069238;28;20456;-69
2022/03/24 00:27:39;;;;;;;29.03;19.87;;;8.10;53.20;;;;;;5068477;28;20501;-68
2022/03/24 00:30:08;;;;;;;28.73;19.70;;;8.10;53.30;;;;;;5069153;28;20472;-68
2022/03/24 00:32:35;;;;;;;35.97;19.93;;;8.00;53.30;;;;;;5072491;28;20808;-69
2022/03/24 00:35:02;;;;;;;31.27;20.10;;;8.00;53.60;;;;;;5072217;28;20456;-68
2022/03/24 00:37:31;;;;;;;35.93;18.83;;;8.10;53.40;;;;;;5072385;28;20514;-68
2022/03/24 00:40:00;;;;;;;28.73;19.60;;;8.00;53.90;;;;;;5072579;28;20453;-68
2022/03/24 00:42:27;;;;;;;31.70;19.70;;;7.80;54.30;;;;;;5072013;28;20456;-69
2022/03/24 00:44:57;;;;;;;29.20;18.00;;;7.90;54.50;;;;;;5071837;28;20460;-68
2022/03/24 00:47:25;;;;;;;31.90;18.40;;;7.90;54.30;;;;;;5071997;28;20484;-69
2022/03/24 00:49:52;;;;;;;31.73;19.20;;;7.80;54.50;;;;;;5072231;28;20817;-69
2022/03/24 00:52:19;;;;;;;32.40;20.73;;;7.80;54.60;;;;;;5072319;28;20449;-68
2022/03/24 00:54:46;;;;;;;40.20;19.57;;;8.00;54.00;;;;;;5072328;28;20922;-68
2022/03/24 00:57:13;;;;;;;32.00;19.00;;;8.10;53.60;;;;;;5071696;28;20473;-68
2022/03/24 00:59:41;;;;;;;35.37;18.27;;;8.10;53.20;;;;;;5071882;28;20961;-69
2022/03/24 01:02:10;;;;;;;29.63;19.43;;;8.00;53.40;;;;;;5071517;28;21020;-69
2022/03/24 01:04:38;;;;;;;35.33;18.60;;;7.90;54.10;;;;;;5071911;28;20457;-69
2022/03/24 01:07:05;;;;;;;26.50;17.90;;;7.80;54.20;;;;;;5071726;28;20517;-69
2022/03/24 01:09:32;;;;;;;28.20;18.07;;;7.80;54.30;;;;;;5071856;28;20453;-69
2022/03/24 01:12:02;;;;;;;37.40;20.70;;;7.80;54.40;;;;;;5071867;28;20781;-68
2022/03/24 01:14:32;;;;;;;31.23;20.43;;;7.70;54.70;;;;;;5071830;28;20461;-69
2022/03/24 01:17:01;;;;;;;32.60;20.70;;;7.60;55.20;;;;;;5071624;28;20453;-69
2022/03/24 01:19:29;;;;;;;33.00;20.87;;;7.50;55.30;;;;;;5071735;28;21004;-68
2022/03/24 01:21:56;;;;;;;41.20;25.23;;;7.40;55.90;;;;;;5071688;28;20464;-68
2022/03/24 01:24:23;;;;;;;48.53;28.77;;;7.40;55.50;;;;;;5071213;28;20468;-68
2022/03/24 01:26:50;;;;;;;45.17;28.43;;;7.20;56.10;;;;;;5071153;28;20497;-69
2022/03/24 01:29:19;;;;;;;49.10;30.20;;;7.30;56.00;;;;;;5071578;28;20461;-70
2022/03/24 01:31:46;;;;;;;49.90;30.30;;;7.10;56.00;;;;;;5071639;28;20557;-69
2022/03/24 01:34:13;;;;;;;61.57;34.60;;;7.00;56.40;;;;;;5071519;28;20455;-71
2022/03/24 01:36:42;;;;;;;52.90;31.80;;;6.90;56.20;;;;;;5071036;28;20453;-68
2022/03/24 01:39:10;;;;;;;63.20;33.83;;;6.70;57.00;;;;;;5070963;28;20476;-68
2022/03/24 01:41:38;;;;;;;52.93;31.73;;;6.60;57.40;;;;;;5071014;28;20445;-69
2022/03/24 01:44:12;;;;;;;57.53;32.50;;;6.40;58.30;;;;;;5070944;28;20507;-69
2022/03/24 01:46:40;;;;;;;57.90;33.20;;;6.30;58.10;;;;;;5070918;28;20484;-69
2022/03/24 01:49:08;;;;;;;50.83;31.10;;;6.10;59.10;;;;;;5070663;28;20993;-68
2022/03/24 01:51:35;;;;;;;50.20;29.67;;;6.20;58.80;;;;;;5070942;28;20464;-68
2022/03/24 01:54:05;;;;;;;47.23;31.70;;;6.00;59.30;;;;;;5070933;28;20476;-69
2022/03/24 01:56:32;;;;;;;49.87;31.07;;;5.60;62.00;;;;;;5070795;28;20922;-69
2022/03/24 01:59:00;;;;;;;49.13;29.87;;;5.60;62.10;;;;;;5070593;28;20489;-69
2022/03/24 02:01:34;;;;;;;45.53;27.80;;;5.50;62.90;;;;;;5070856;28;20552;-69
2022/03/24 02:04:04;;;;;;;50.83;27.40;;;5.60;64.00;;;;;;5070603;28;20448;-69
2022/03/24 02:06:32;;;;;;;49.33;27.30;;;5.70;63.80;;;;;;5070725;28;20457;-68
2022/03/24 02:08:59;;;;;;;39.00;24.53;;;5.70;64.40;;;;;;5071689;28;20468;-68
2022/03/24 02:11:29;;;;;;;35.20;24.90;;;5.80;63.70;;;;;;5070677;28;20457;-68
2022/03/24 02:13:56;;;;;;;38.77;24.90;;;5.90;63.20;;;;;;5070474;28;20441;-69
2022/03/24 02:16:27;;;;;;;42.57;23.00;;;5.60;64.90;;;;;;5070168;28;20495;-69
2022/03/24 02:18:59;;;;;;;45.80;22.30;;;5.80;64.30;;;;;;5070121;28;20473;-69
2022/03/24 02:21:26;;;;;;;35.80;23.43;;;5.80;64.20;;;;;;5070451;28;20456;-68
2022/03/24 02:23:54;;;;;;;39.03;22.17;;;5.90;63.90;;;;;;5070335;28;20507;-69
2022/03/24 02:26:21;;;;;;;39.87;23.40;;;5.70;65.60;;;;;;5069918;28;20492;-69
2022/03/24 02:28:48;;;;;;;39.37;23.03;;;5.90;65.00;;;;;;5069684;28;20492;-69
2022/03/24 02:31:16;;;;;;;43.13;23.77;;;5.70;65.80;;;;;;5070211;28;20445;-69
2022/03/24 02:33:43;;;;;;;35.33;22.07;;;5.70;66.20;;;;;;5070285;28;20565;-69
2022/03/24 02:36:10;;;;;;;40.90;22.07;;;5.60;66.50;;;;;;5069743;28;20847;-70
2022/03/24 02:38:38;;;;;;;36.50;23.00;;;5.70;66.60;;;;;;5070078;28;20488;-69
2022/03/24 02:41:07;;;;;;;36.10;22.30;;;5.70;67.30;;;;;;5069687;28;20457;-68
2022/03/24 02:43:34;;;;;;;40.47;21.07;;;5.80;67.60;;;;;;5070072;28;20949;-70
2022/03/24 02:46:01;;;;;;;36.43;22.80;;;5.70;67.50;;;;;;5070037;28;20514;-69
2022/03/24 02:48:28;;;;;;;36.30;21.60;;;5.70;68.00;;;;;;5069511;28;20989;-68
2022/03/24 02:50:56;;;;;;;39.13;21.87;;;5.80;68.00;;;;;;5069844;28;20453;-68
2022/03/24 02:53:23;;;;;;;36.67;21.60;;;5.90;67.30;;;;;;5069468;28;20881;-68
2022/03/24 02:55:50;;;;;;;35.03;22.20;;;6.00;67.10;;;;;;5069747;28;20456;-69
2022/03/24 02:58:19;;;;;;;31.90;21.50;;;6.00;66.40;;;;;;5069389;28;20465;-68
2022/03/24 03:00:46;;;;;;;34.63;22.60;;;6.00;66.30;;;;;;5069597;28;20453;-69
2022/03/24 03:03:13;;;;;;;31.57;21.17;;;6.00;66.10;;;;;;5069537;28;20503;-68
2022/03/24 03:05:41;;;;;;;33.77;22.07;;;6.00;66.80;;;;;;5069740;28;20463;-69
2022/03/24 03:08:09;;;;;;;36.10;20.47;;;5.90;66.90;;;;;;5069629;28;20503;-69
2022/03/24 03:10:38;;;;;;;43.43;22.47;;;6.00;67.40;;;;;;5069247;28;20968;-68
2022/03/24 03:13:06;;;;;;;35.37;19.70;;;6.10;66.60;;;;;;5069609;28;20942;-68
2022/03/24 03:15:35;;;;;;;31.90;19.90;;;6.10;66.10;;;;;;5069997;28;20556;-68
2022/03/24 03:18:02;;;;;;;33.60;22.00;;;5.90;67.20;;;;;;5069731;28;20472;-68
2022/03/24 03:20:30;;;;;;;38.00;22.03;;;6.00;67.90;;;;;;5069715;28;20538;-68
2022/03/24 03:22:57;;;;;;;38.63;20.30;;;6.00;67.90;;;;;;5069372;28;20465;-68
2022/03/24 03:25:24;;;;;;;37.07;22.93;;;6.10;67.50;;;;;;5069385;28;20456;-71
2022/03/24 03:27:51;;;;;;;34.60;21.80;;;6.10;67.40;;;;;;5069168;28;21012;-69
2022/03/24 03:30:18;;;;;;;31.33;22.00;;;6.10;67.20;;;;;;5069427;28;20456;-69
2022/03/24 03:32:46;;;;;;;31.63;20.73;;;6.00;67.60;;;;;;5069555;28;20449;-68
2022/03/24 03:35:15;;;;;;;30.93;21.80;;;6.00;67.70;;;;;;5069508;28;20445;-70
2022/03/24 03:37:42;;;;;;;38.00;22.67;;;6.00;67.80;;;;;;5069065;28;20587;-68
2022/03/24 03:40:11;;;;;;;36.33;22.77;;;5.80;68.50;;;;;;5069016;28;20445;-68
2022/03/24 03:42:38;;;;;;;37.00;21.50;;;5.80;68.80;;;;;;5068986;28;20464;-68
2022/03/24 03:45:07;;;;;;;32.77;22.57;;;5.90;68.90;;;;;;5069248;28;20937;-68
2022/03/24 03:47:34;;;;;;;31.17;20.90;;;6.00;68.60;;;;;;5069367;28;20485;-69
2022/03/24 03:50:03;;;;;;;33.60;21.60;;;5.90;68.40;;;;;;5069611;28;20449;-68
2022/03/24 03:52:30;;;;;;;31.93;22.23;;;5.80;68.80;;;;;;5069282;28;20751;-69
2022/03/24 03:54:57;;;;;;;34.30;20.40;;;5.80;68.80;;;;;;5069460;28;20453;-69
2022/03/24 03:57:24;;;;;;;35.90;20.90;;;5.90;69.20;;;;;;5069330;28;20477;-69
2022/03/24 03:59:51;;;;;;;37.30;23.30;;;5.90;68.60;;;;;;5069152;28;20986;-68
2022/03/24 04:02:19;;;;;;;32.10;20.20;;;5.80;70.50;;;;;;5069115;28;20510;-69
2022/03/24 04:04:46;;;;;;;33.87;20.20;;;5.80;71.10;;;;;;5069076;28;20452;-69
2022/03/24 04:07:14;;;;;;;27.10;19.67;;;6.00;69.60;;;;;;5072528;28;20574;-69
2022/03/24 04:09:41;;;;;;;24.90;17.10;;;5.70;71.20;;;;;;5072965;28;20494;-69
2022/03/24 04:12:09;;;;;;;32.43;18.83;;;5.80;71.60;;;;;;5072976;28;20460;-68
2022/03/24 04:14:36;;;;;;;30.63;19.43;;;5.70;72.10;;;;;;5073071;28;20448;-68
2022/03/24 04:17:04;;;;;;;41.80;20.80;;;5.80;71.40;;;;;;5072806;28;20941;-67
2022/03/24 04:19:31;;;;;;;32.80;21.10;;;5.60;72.40;;;;;;5072587;28;20453;-68
2022/03/24 04:21:59;;;;;;;37.70;20.63;;;5.50;73.80;;;;;;5072818;28;20456;-68
2022/03/24 04:24:27;;;;;;;40.30;21.70;;;5.50;74.80;;;;;;5072485;28;20475;-70
2022/03/24 04:26:56;;;;;;;29.50;20.43;;;5.50;73.70;;;;;;5072095;28;20484;-69
2022/03/24 04:29:23;;;;;;;32.30;20.80;;;5.50;74.50;;;;;;5072533;28;20798;-69
2022/03/24 04:31:51;;;;;;;34.50;19.50;;;5.50;74.50;;;;;;5072222;28;20544;-68
2022/03/24 04:34:18;;;;;;;36.20;20.30;;;5.60;75.10;;;;;;5072516;28;20453;-68
2022/03/24 04:36:45;;;;;;;39.13;20.90;;;5.60;75.70;;;;;;5072615;28;20461;-68
2022/03/24 04:39:12;;;;;;;34.87;21.97;;;5.70;75.80;;;;;;5072382;28;20545;-68
2022/03/24 04:41:42;;;;;;;40.07;20.20;;;5.90;74.10;;;;;;5072501;28;20551;-69
2022/03/24 04:44:09;;;;;;;37.13;20.93;;;5.90;74.50;;;;;;5072384;28;20880;-68
2022/03/24 04:46:36;;;;;;;37.50;21.33;;;6.00;73.30;;;;;;5071868;28;20453;-68
2022/03/24 04:49:03;;;;;;;33.23;22.70;;;6.00;73.30;;;;;;5072071;28;20535;-69
2022/03/24 04:51:30;;;;;;;32.13;22.53;;;6.00;73.00;;;;;;5072261;28;20445;-68
2022/03/24 04:53:57;;;;;;;30.10;21.87;;;5.90;72.80;;;;;;5072182;28;20807;-69
2022/03/24 04:56:24;;;;;;;40.53;24.07;;;5.90;73.20;;;;;;5072199;28;20991;-68
2022/03/24 04:58:53;;;;;;;45.27;24.67;;;5.80;73.80;;;;;;5072162;28;20476;-70
2022/03/24 05:01:20;;;;;;;46.60;24.97;;;5.60;74.90;;;;;;5071887;28;21064;-69
2022/03/24 05:03:47;;;;;;;50.33;29.13;;;5.60;75.80;;;;;;5071776;28;20522;-68
2022/03/24 05:06:15;;;;;;;45.40;27.13;;;5.80;75.50;;;;;;5071876;28;20484;-68
2022/03/24 05:08:42;;;;;;;50.03;32.40;;;5.80;75.70;;;;;;5071919;28;20492;-70
2022/03/24 05:11:09;;;;;;;56.80;33.90;;;5.90;74.20;;;;;;5071982;28;20453;-68
2022/03/24 05:13:36;;;;;;;49.10;32.70;;;5.90;73.50;;;;;;5071772;28;20457;-69
2022/03/24 05:16:05;;;;;;;54.53;34.27;;;5.90;74.10;;;;;;5071532;28;20448;-69
2022/03/24 05:18:32;;;;;;;52.10;31.50;;;5.90;73.00;;;;;;5071724;28;20871;-68
2022/03/24 05:20:59;;;;;;;44.43;29.27;;;5.90;72.80;;;;;;5071827;28;20540;-69
2022/03/24 05:23:27;;;;;;;44.07;30.37;;;6.00;72.80;;;;;;5071594;28;20928;-69
2022/03/24 05:25:54;;;;;;;47.20;29.00;;;6.00;72.60;;;;;;5071538;28;21094;-69
2022/03/24 05:28:21;;;;;;;42.53;28.40;;;6.00;73.10;;;;;;5071417;28;20497;-68
2022/03/24 05:30:49;;;;;;;46.00;27.40;;;6.00;72.80;;;;;;5071414;28;20452;-68
2022/03/24 05:33:17;;;;;;;36.67;25.77;;;6.10;72.30;;;;;;5071464;28;20457;-69
2022/03/24 05:35:44;;;;;;;40.63;25.70;;;6.20;71.50;;;;;;5071447;28;20453;-68
2022/03/24 05:38:12;;;;;;;47.03;26.80;;;6.10;72.10;;;;;;5071421;28;20461;-70
2022/03/24 05:40:40;;;;;;;40.03;24.77;;;6.20;72.10;;;;;;5070827;28;20906;-69
2022/03/24 05:43:07;;;;;;;43.47;28.70;;;6.40;72.10;;;;;;5070907;28;20914;-69
2022/03/24 05:45:34;;;;;;;45.63;27.40;;;6.50;70.80;;;;;;5070869;28;20460;-70
2022/03/24 05:48:01;;;;;;;35.80;26.17;;;6.40;70.50;;;;;;5070574;28;20496;-69
2022/03/24 05:50:31;;;;;;;39.83;27.93;;;6.40;70.30;;;;;;5071196;28;20914;-70
2022/03/24 05:52:58;;;;;;;45.27;27.00;;;6.60;69.10;;;;;;5071143;28;20530;-68
2022/03/24 05:55:26;;;;;;;36.37;25.43;;;6.70;68.80;;;;;;5071010;28;20453;-69
2022/03/24 05:57:53;;;;;;;39.90;25.57;;;6.80;69.60;;;;;;5071106;28;20477;-68
2022/03/24 06:00:21;;;;;;;32.90;22.90;;;6.90;70.30;;;;;;5070978;28;20449;-67
2022/03/24 06:02:48;;;;;;;33.33;22.97;;;6.90;69.40;;;;;;5071163;28;20457;-72
2022/03/24 06:05:16;;;;;;;33.87;23.73;;;7.10;69.00;;;;;;5071085;28;20948;-76
2022/03/24 06:07:44;;;;;;;31.10;23.87;;;7.20;68.50;;;;;;5070981;28;20469;-76
2022/03/24 06:10:11;;;;;;;39.90;24.13;;;7.40;69.20;;;;;;5070542;28;20534;-78
2022/03/24 06:12:39;;;;;;;37.07;20.80;;;7.40;70.30;;;;;;5070752;28;20452;-74
2022/03/24 06:15:07;;;;;;;27.53;20.33;;;7.40;68.30;;;;;;5070691;28;20960;-75
2022/03/24 06:17:35;;;;;;;32.77;21.90;;;7.40;66.70;;;;;;5070654;28;20477;-73
2022/03/24 06:20:03;;;;;;;27.90;19.20;;;7.50;67.40;;;;;;5070077;28;20859;-71
2022/03/24 06:22:31;;;;;;;33.63;22.90;;;7.60;66.40;;;;;;5070143;28;20456;-69
2022/03/24 06:25:00;;;;;;;31.47;21.20;;;7.80;64.70;;;;;;5070480;28;20449;-74
2022/03/24 06:27:28;;;;;;;23.23;18.30;;;7.80;65.50;;;;;;5070127;28;20493;-72
2022/03/24 06:29:55;;;;;;;30.47;18.57;;;7.90;64.00;;;;;;5069936;28;21004;-71
2022/03/24 06:32:22;;;;;;;54.27;21.33;;;7.90;64.60;;;;;;5070439;28;20449;-73
2022/03/24 06:34:51;;;;;;;34.33;19.57;;;8.10;64.10;;;;;;5070269;28;20453;-75
2022/03/24 06:37:18;;;;;;;33.13;19.83;;;8.20;63.10;;;;;;5070061;28;20531;-73
2022/03/24 06:39:45;;;;;;;36.00;19.47;;;8.30;62.90;;;;;;5070338;28;20460;-68
2022/03/24 06:42:13;;;;;;;27.53;18.63;;;8.60;61.60;;;;;;5070316;28;20830;-76
2022/03/24 06:44:41;;;;;;;26.87;20.00;;;8.50;61.90;;;;;;5070437;28;20453;-72
2022/03/24 06:47:10;;;;;;;31.93;18.87;;;8.50;62.00;;;;;;5070025;28;20464;-76
2022/03/24 06:49:37;;;;;;;24.90;19.23;;;8.60;61.10;;;;;;5070162;28;20588;-73
2022/03/24 06:52:04;;;;;;;30.43;18.00;;;8.70;60.60;;;;;;5070136;28;20512;-74
2022/03/24 06:54:31;;;;;;;33.10;19.10;;;8.80;60.80;;;;;;5069932;28;20456;-75
2022/03/24 06:56:58;;;;;;;28.93;19.17;;;9.00;61.20;;;;;;5069871;28;20453;-75
2022/03/24 06:59:27;;;;;;;34.50;18.60;;;9.20;60.60;;;;;;5070036;28;20453;-74
2022/03/24 07:01:54;;;;;;;27.83;20.47;;;9.40;59.60;;;;;;5072276;28;21020;-73
2022/03/24 07:04:21;;;;;;;30.30;20.20;;;9.60;58.90;;;;;;5073793;28;20974;-73
2022/03/24 07:06:48;;;;;;;26.20;19.43;;;9.80;58.40;;;;;;5072650;28;20453;-72
2022/03/24 07:09:15;;;;;;;27.93;19.67;;;9.90;58.20;;;;;;5069704;28;20498;-70
2022/03/24 07:11:42;;;;;;;28.83;20.67;;;10.00;57.60;;;;;;5069667;28;20488;-70
2022/03/24 07:14:10;;;;;;;29.60;19.40;;;10.10;57.70;;;;;;5069788;28;20449;-69
2022/03/24 07:16:39;;;;;;;27.87;18.87;;;10.20;57.50;;;;;;5069380;28;20556;-68
2022/03/24 07:19:08;;;;;;;28.33;20.33;;;10.50;56.90;;;;;;5069418;28;20941;-69
2022/03/24 07:21:35;;;;;;;40.67;21.67;;;10.70;56.50;;;;;;5069605;28;20453;-69
2022/03/24 07:24:02;;;;;;;33.63;21.70;;;10.80;55.90;;;;;;5069478;28;20965;-69
2022/03/24 07:26:29;;;;;;;38.23;22.80;;;11.10;55.60;;;;;;5069225;28;20567;-73
2022/03/24 07:28:56;;;;;;;28.30;21.30;;;11.20;55.30;;;;;;5069417;28;20500;-70
2022/03/24 07:31:24;;;;;;;30.73;21.73;;;11.30;54.70;;;;;;5069095;28;20506;-69
2022/03/24 07:33:55;;;;;;;26.07;19.47;;;11.50;54.70;;;;;;5069555;28;20456;-71
2022/03/24 07:36:23;;;;;;;33.97;21.50;;;11.60;54.80;;;;;;5069461;28;20460;-69
2022/03/24 07:38:50;;;;;;;33.50;21.30;;;11.80;54.30;;;;;;5069302;28;20477;-70
2022/03/24 07:41:18;;;;;;;32.90;22.47;;;12.00;53.90;;;;;;5073278;28;20453;-70
2022/03/24 07:43:45;;;;;;;32.87;20.43;;;12.30;53.20;;;;;;5073243;28;20940;-70
2022/03/24 07:46:12;;;;;;;38.00;21.30;;;12.50;52.60;;;;;;5073689;28;20895;-70
2022/03/24 07:48:39;;;;;;;34.10;21.50;;;12.70;53.00;;;;;;5073130;28;20489;-70
2022/03/24 07:51:08;;;;;;;35.90;20.97;;;13.00;52.60;;;;;;5073183;28;20456;-70
2022/03/24 07:53:58;;;;;;;40.13;26.53;;;13.20;52.10;;;;;;5072754;28;20470;-70
2022/03/24 07:56:26;;;;;;;32.20;21.60;;;13.30;51.20;;;;;;5073231;28;20460;-73
2022/03/24 07:58:53;;;;;;;35.20;25.70;;;13.40;51.20;;;;;;5072892;28;20471;-75
2022/03/24 08:01:26;;;;;;;39.23;20.83;;;13.50;50.20;;;;;;5073330;28;20459;-72
2022/03/24 08:03:53;;;;;;;29.07;19.03;;;13.70;49.60;;;;;;5073045;28;20547;-68
2022/03/24 08:06:22;;;;;;;23.67;19.47;;;13.90;48.90;;;;;;5073004;28;20461;-72
2022/03/24 08:08:49;;;;;;;25.47;18.40;;;14.00;48.70;;;;;;5072503;28;20977;-72
2022/03/24 08:11:16;;;;;;;34.00;20.20;;;13.90;48.70;;;;;;5072766;28;20853;-75
2022/03/24 08:13:47;;;;;;;27.37;19.40;;;14.10;48.60;;;;;;5072779;28;20455;-72
2022/03/24 08:16:14;;;;;;;27.23;18.20;;;14.40;48.30;;;;;;5072916;28;20461;-71
2022/03/24 08:18:41;;;;;;;31.47;17.40;;;14.50;47.80;;;;;;5072615;28;20484;-72
2022/03/24 08:21:09;;;;;;;26.80;19.37;;;14.70;47.30;;;;;;5072661;28;20463;-71
2022/03/24 08:23:37;;;;;;;25.70;18.37;;;14.90;46.70;;;;;;5072800;28;20538;-72
2022/03/24 08:26:05;;;;;;;30.03;18.90;;;15.10;46.40;;;;;;5072172;28;20985;-72
2022/03/24 08:28:32;;;;;;;25.10;17.10;;;15.20;45.90;;;;;;5072584;28;20469;-73
2022/03/24 08:30:59;;;;;;;27.43;17.50;;;15.00;45.90;;;;;;5072525;28;20828;-72
2022/03/24 08:33:26;;;;;;;22.23;16.17;;;15.00;45.90;;;;;;5072484;28;20941;-71
2022/03/24 08:35:53;;;;;;;23.93;16.10;;;15.00;45.40;;;;;;5072321;28;20925;-71
2022/03/24 08:38:20;;;;;;;25.87;17.40;;;14.80;45.30;;;;;;5072250;28;20476;-72
2022/03/24 08:40:49;;;;;;;22.80;15.83;;;14.80;46.30;;;;;;5072247;28;20449;-71
2022/03/24 08:43:16;;;;;;;22.07;13.33;;;15.10;46.20;;;;;;5072264;28;20460;-71
2022/03/24 08:45:43;;;;;;;18.90;12.63;;;15.20;45.30;;;;;;5072343;28;20464;-72
2022/03/24 08:48:11;;;;;;;22.80;13.57;;;15.30;44.90;;;;;;5071642;28;20534;-72
2022/03/24 08:50:38;;;;;;;24.10;14.63;;;15.50;45.30;;;;;;5071652;28;20481;-72
2022/03/24 08:53:06;;;;;;;22.83;13.80;;;15.60;45.50;;;;;;5071475;28;20453;-72
2022/03/24 08:55:34;;;;;;;21.80;12.90;;;15.90;45.30;;;;;;5072217;28;20453;-71
2022/03/24 08:58:04;;;;;;;20.83;12.50;;;15.90;44.90;;;;;;5071976;28;20481;-72
2022/03/24 09:00:32;;;;;;;15.77;11.20;;;16.00;45.10;;;;;;5071432;28;20467;-72
2022/03/24 09:02:59;;;;;;;14.90;11.20;;;16.30;45.50;;;;;;5071557;28;20461;-72
2022/03/24 09:05:26;;;;;;;17.13;10.13;;;16.50;44.60;;;;;;5071682;28;20449;-71
2022/03/24 09:07:53;;;;;;;18.00;10.50;;;16.50;44.20;;;;;;5071745;28;20473;-73
2022/03/24 09:10:21;;;;;;;20.80;10.57;;;16.60;44.20;;;;;;5071799;28;20508;-71
2022/03/24 09:12:49;;;;;;;17.47;10.63;;;16.90;44.90;;;;;;5071980;28;20464;-71
2022/03/24 09:15:19;;;;;;;21.43;10.20;;;17.10;44.30;;;;;;5071950;28;20453;-72
2022/03/24 09:17:47;;;;;;;16.27;9.40;;;17.20;43.90;;;;;;5071767;28;20546;-72
2022/03/24 09:20:19;;;;;;;14.33;9.47;;;17.30;43.90;;;;;;5071474;28;20860;-72
2022/03/24 09:22:48;;;;;;;13.37;9.80;;;17.60;43.50;;;;;;5071475;28;20492;-72
2022/03/24 09:25:16;;;;;;;19.33;10.27;;;17.70;43.60;;;;;;5069972;28;20456;-73
2022/03/24 09:27:44;;;;;;;18.10;9.83;;;17.70;42.50;;;;;;5070862;28;20484;-72
2022/03/24 09:30:14;;;;;;;12.60;9.13;;;17.70;42.70;;;;;;5071204;28;20488;-72
2022/03/24 09:32:45;;;;;;;14.90;9.77;;;18.00;42.10;;;;;;5071290;28;20449;-71
2022/03/24 09:35:12;;;;;;;13.50;8.67;;;17.90;40.80;;;;;;5071542;28;20891;-72
2022/03/24 09:37:39;;;;;;;16.77;9.77;;;17.90;41.50;;;;;;5071305;28;20481;-71
2022/03/24 09:40:08;;;;;;;13.83;8.70;;;18.20;41.20;;;;;;5071142;28;20452;-71
2022/03/24 09:42:36;;;;;;;13.73;8.30;;;18.20;39.40;;;;;;5071016;28;20543;-72
2022/03/24 09:45:05;;;;;;;11.93;8.47;;;18.20;39.40;;;;;;5071065;28;20456;-72
2022/03/24 09:47:33;;;;;;;11.50;8.20;;;18.30;38.70;;;;;;5070915;28;20481;-70
2022/03/24 09:50:02;;;;;;;11.43;7.80;;;18.50;37.90;;;;;;5070891;28;20955;-71
2022/03/24 09:52:29;;;;;;;14.33;8.60;;;18.20;37.20;;;;;;5070900;28;20479;-69
2022/03/24 09:54:57;;;;;;;17.73;7.40;;;18.20;36.90;;;;;;5070700;28;20470;-72
2022/03/24 09:57:25;;;;;;;18.33;8.37;;;18.20;37.00;;;;;;5070506;28;20500;-72
2022/03/24 09:59:52;;;;;;;18.10;7.80;;;18.20;37.60;;;;;;5070319;28;20448;-72
2022/03/24 10:02:20;;;;;;;13.57;7.73;;;18.70;37.20;;;;;;5070434;28;20457;-73
2022/03/24 10:04:49;;;;;;;8.93;7.17;;;18.60;35.50;;;;;;5069891;28;20456;-72
2022/03/24 10:07:19;;;;;;;12.37;7.80;;;18.60;35.60;;;;;;5070548;28;20555;-72
2022/03/24 10:09:48;;;;;;;11.30;7.83;;;18.90;34.60;;;;;;5070362;28;20489;-70
2022/03/24 10:12:20;;;;;;;12.13;7.47;;;19.10;34.70;;;;;;5070711;28;20467;-72
2022/03/24 10:14:57;;;;;;;13.00;7.90;;;19.30;33.20;;;;;;5070824;28;20453;-72
2022/03/24 10:17:24;;;;;;;13.03;9.00;;;19.30;33.40;;;;;;5070351;28;20468;-72
2022/03/24 10:20:00;;;;;;;14.67;8.00;;;19.50;32.80;;;;;;5070548;28;20445;-72
2022/03/24 10:22:28;;;;;;;16.90;8.87;;;19.40;32.90;;;;;;5069940;28;20494;-72
2022/03/24 10:24:56;;;;;;;10.30;7.63;;;19.40;32.30;;;;;;5069989;28;20463;-72
2022/03/24 10:27:26;;;;;;;13.07;7.10;;;19.50;32.80;;;;;;5069910;28;20591;-71
2022/03/24 10:29:55;;;;;;;11.83;7.50;;;20.00;32.90;;;;;;5069904;28;20491;-71
2022/03/24 10:32:28;;;;;;;11.50;7.03;;;20.50;32.10;;;;;;5069907;28;20449;-72
2022/03/24 10:34:58;;;;;;;12.60;8.40;;;20.70;31.20;;;;;;5069546;28;20452;-73
2022/03/24 10:37:28;;;;;;;11.13;8.43;;;20.70;31.10;;;;;;5069576;28;20476;-72
2022/03/24 10:40:02;;;;;;;11.40;7.90;;;20.90;31.20;;;;;;5069642;28;20540;-72
2022/03/24 10:42:32;;;;;;;11.47;8.13;;;21.00;31.50;;;;;;5069830;28;20492;-73
2022/03/24 10:45:15;;;;;;;9.90;7.20;;;21.30;31.50;;;;;;5069012;28;20449;-72
2022/03/24 10:47:48;;;;;;;10.70;7.27;;;21.30;30.80;;;;;;5069246;28;20500;-72
2022/03/24 10:50:30;;;;;;;12.50;7.60;;;21.10;30.30;;;;;;5069485;28;20500;-72
2022/03/24 10:53:04;;;;;;;13.93;7.53;;;20.90;30.60;;;;;;5069957;28;20453;-72
2022/03/24 10:55:49;;;;;;;12.73;6.73;;;21.20;30.90;;;;;;5069012;28;20483;-72
2022/03/24 10:58:21;;;;;;;11.73;7.57;;;21.20;30.30;;;;;;5067934;28;20512;-71
2022/03/24 11:00:51;;;;;;;14.17;7.03;;;21.00;30.90;;;;;;5072950;28;20823;-71
2022/03/24 11:03:19;;;;;;;10.57;8.20;;;21.40;30.70;;;;;;5085152;28;20455;-71
2022/03/24 11:05:46;;;;;;;10.37;7.73;;;21.60;30.30;;;;;;5071417;28;20476;-72
2022/03/24 11:08:18;;;;;;;10.00;6.60;;;21.90;29.30;;;;;;5069231;28;20476;-72
2022/03/24 11:10:47;;;;;;;11.57;6.90;;;22.30;29.30;;;;;;5069035;28;20550;-74
2022/03/24 11:13:25;;;;;;;10.03;6.90;;;22.50;29.00;;;;;;5069306;28;20481;-72
2022/03/24 11:15:53;;;;;;;8.77;7.10;;;22.40;29.40;;;;;;5069131;28;20448;-67
2022/03/24 11:18:23;;;;;;;10.77;7.03;;;22.70;29.30;;;;;;5068716;28;20480;-72
2022/03/24 11:20:51;;;;;;;12.23;6.33;;;22.90;29.70;;;;;;5069197;28;20557;-73
2022/03/24 11:23:35;;;;;;;9.47;7.63;;;23.20;29.30;;;;;;5068795;28;20848;-68
2022/03/24 11:26:04;;;;;;;9.70;7.13;;;23.40;29.10;;;;;;5068672;28;20469;-74
2022/03/24 11:28:35;;;;;;;11.33;7.87;;;23.10;28.50;;;;;;5068678;28;20493;-75
2022/03/24 11:31:08;;;;;;;10.37;7.20;;;23.00;28.90;;;;;;5068723;28;20575;-73
2022/03/24 11:33:40;;;;;;;16.60;7.63;;;23.00;28.60;;;;;;5068880;28;20448;-74
2022/03/24 11:36:09;;;;;;;10.70;7.40;;;23.10;29.10;;;;;;5068815;28;20554;-73
2022/03/24 11:38:38;;;;;;;11.97;7.40;;;23.30;29.40;;;;;;5068986;28;20999;-73
2022/03/24 11:41:11;;;;;;;11.27;6.90;;;23.10;28.50;;;;;;5068399;28;20481;-73
2022/03/24 11:43:43;;;;;;;10.80;6.33;;;23.10;28.30;;;;;;5068174;28;20476;-74
2022/03/24 11:46:12;;;;;;;12.83;7.30;;;23.50;29.10;;;;;;5069106;28;20460;-74
2022/03/24 11:48:42;;;;;;;10.47;8.77;;;23.60;28.20;;;;;;5068764;28;20571;-74
2022/03/24 11:51:19;;;;;;;9.23;6.83;;;23.70;28.50;;;;;;5068753;28;20484;-74
2022/03/24 11:54:02;;;;;;;12.93;6.53;;;23.60;28.10;;;;;;5068470;28;20472;-74
2022/03/24 11:56:30;;;;;;;10.27;6.47;;;23.80;27.80;;;;;;5069266;28;20480;-74
2022/03/24 11:59:23;;;;;;;9.77;7.77;;;23.90;28.40;;;;;;5069084;28;20479;-74
2022/03/24 12:02:18;;;;;;;12.10;7.93;;;24.10;28.00;;;;;;5069146;28;20514;-74
2022/03/24 12:04:47;;;;;;;10.43;7.20;;;24.10;27.70;;;;;;5062360;28;20457;-74
2022/03/24 12:07:18;;;;;;;11.67;7.60;;;24.20;27.70;;;;;;5068499;28;20507;-74
2022/03/24 12:10:06;;;;;;;16.50;7.37;;;24.20;27.30;;;;;;5068182;28;20484;-74
2022/03/24 12:12:34;;;;;;;10.17;7.90;;;23.90;27.20;;;;;;5069103;28;20532;-73
2022/03/24 12:15:10;;;;;;;9.77;6.70;;;24.00;27.30;;;;;;5068561;28;20449;-72
2022/03/24 12:17:37;;;;;;;11.93;6.93;;;24.10;27.30;;;;;;5068671;28;20471;-74
2022/03/24 12:20:21;;;;;;;11.90;7.10;;;24.10;27.10;;;;;;5069005;28;20468;-73
2022/03/24 12:22:48;;;;;;;10.00;7.40;;;24.20;27.30;;;;;;5068209;28;20492;-74
2022/03/24 12:25:28;;;;;;;8.93;5.43;;;24.50;26.80;;;;;;5067797;28;20448;-74
2022/03/24 12:28:15;;;;;;;8.30;5.63;;;24.60;25.90;;;;;;5071051;28;20487;-74
2022/03/24 12:31:10;;;;;;;10.17;5.73;;;24.30;24.30;;;;;;5061004;28;20488;-74
2022/03/24 12:33:47;;;;;;;12.13;6.03;;;24.60;25.30;;;;;;5071595;28;20460;-74
2022/03/24 12:36:15;;;;;;;9.10;6.20;;;24.60;25.40;;;;;;5072094;28;20456;-76
2022/03/24 12:38:54;;;;;;;11.37;6.97;;;24.50;25.70;;;;;;5072254;28;20473;-77
2022/03/24 12:41:27;;;;;;;7.93;5.83;;;24.70;26.50;;;;;;5072148;28;20988;-73
2022/03/24 12:44:09;;;;;;;5.70;3.60;;;25.20;25.90;;;;;;5071746;28;20949;-74